createdAt,value
2017-09-17T00:00:28.666Z,1008.43
2017-09-17T00:01:28.663Z,1008.41
2017-09-17T00:02:28.660Z,1008.41
2017-09-17T00:03:28.653Z,1008.40
2017-09-17T00:04:28.658Z,1008.40
2017-09-17T00:05:28.647Z,1008.37
2017-09-17T00:06:28.643Z,1008.38
2017-09-17T00:07:28.641Z,1008.43
2017-09-17T00:08:28.633Z,1008.33
2017-09-17T00:09:28.630Z,1008.35
2017-09-17T00:10:28.624Z,1008.34
2017-09-17T00:11:28.621Z,1008.38
2017-09-17T00:12:28.615Z,1008.34
2017-09-17T00:13:28.612Z,1008.33
2017-09-17T00:14:28.608Z,1008.37
2017-09-17T00:15:28.606Z,1008.33
2017-09-17T00:16:28.599Z,1008.36
2017-09-17T00:17:28.595Z,1008.37
2017-09-17T00:18:28.590Z,1008.34
2017-09-17T00:19:28.586Z,1008.36
2017-09-17T00:20:28.582Z,1008.41
2017-09-17T00:21:28.578Z,1008.42
2017-09-17T00:22:28.576Z,1008.43
2017-09-17T00:23:28.570Z,1008.44
2017-09-17T00:24:28.565Z,1008.38
2017-09-17T00:25:28.560Z,1008.45
2017-09-17T00:26:28.555Z,1008.44
2017-09-17T00:27:28.550Z,1008.41
2017-09-17T00:28:28.545Z,1008.42
2017-09-17T00:29:28.542Z,1008.43
2017-09-17T00:30:28.540Z,1008.43
2017-09-17T00:31:28.533Z,1008.39
2017-09-17T00:32:28.528Z,1008.37
2017-09-17T00:33:28.524Z,1008.36
2017-09-17T00:34:28.520Z,1008.37
2017-09-17T00:35:28.514Z,1008.37
2017-09-17T00:36:28.512Z,1008.38
2017-09-17T00:37:28.506Z,1008.41
2017-09-17T00:38:28.501Z,1008.41
2017-09-17T00:39:28.498Z,1008.32
2017-09-17T00:40:28.493Z,1008.35
2017-09-17T00:41:28.489Z,1008.35
2017-09-17T00:42:28.485Z,1008.35
2017-09-17T00:43:28.478Z,1008.32
2017-09-17T00:44:28.475Z,1008.30
2017-09-17T00:45:28.471Z,1008.33
2017-09-17T00:46:28.466Z,1008.27
2017-09-17T00:47:28.461Z,1008.27
2017-09-17T00:48:28.457Z,1008.31
2017-09-17T00:49:28.452Z,1008.32
2017-09-17T00:50:28.448Z,1008.28
2017-09-17T00:51:28.443Z,1008.28
2017-09-17T00:52:28.440Z,1008.29
2017-09-17T00:53:28.433Z,1008.29
2017-09-17T00:54:28.430Z,1008.28
2017-09-17T00:55:28.425Z,1008.25
2017-09-17T00:56:28.420Z,1008.25
2017-09-17T00:57:28.416Z,1008.23
2017-09-17T00:58:28.412Z,1008.23
2017-09-17T00:59:28.406Z,1008.25
2017-09-17T01:00:28.403Z,1008.25
2017-09-17T01:01:28.398Z,1008.19
2017-09-17T01:02:28.392Z,1008.24
2017-09-17T01:03:28.388Z,1008.21
2017-09-17T01:04:28.382Z,1008.25
2017-09-17T01:05:28.380Z,1008.24
2017-09-17T01:06:28.376Z,1008.27
2017-09-17T01:07:28.370Z,1008.26
2017-09-17T01:08:28.364Z,1008.24
2017-09-17T01:09:28.361Z,1008.32
2017-09-17T01:10:28.357Z,1008.27
2017-09-17T01:11:28.352Z,1008.28
2017-09-17T01:12:28.348Z,1008.27
2017-09-17T01:13:28.342Z,1008.24
2017-09-17T01:14:28.339Z,1008.22
2017-09-17T01:15:28.333Z,1008.25
2017-09-17T01:16:28.328Z,1008.24
2017-09-17T01:17:28.324Z,1008.25
2017-09-17T01:18:28.321Z,1008.23
2017-09-17T01:19:28.315Z,1008.27
2017-09-17T01:20:28.311Z,1008.22
2017-09-17T01:21:28.306Z,1008.28
2017-09-17T01:22:28.302Z,1008.26
2017-09-17T01:23:28.297Z,1008.23
2017-09-17T01:24:28.292Z,1008.23
2017-09-17T01:25:28.290Z,1008.25
2017-09-17T01:26:28.283Z,1008.25
2017-09-17T01:27:28.278Z,1008.22
2017-09-17T01:28:28.274Z,1008.23
2017-09-17T01:29:28.268Z,1008.29
2017-09-17T01:30:28.264Z,1008.29
2017-09-17T01:31:28.259Z,1008.27
2017-09-17T01:32:28.253Z,1008.32
2017-09-17T01:33:28.249Z,1008.27
2017-09-17T01:34:28.246Z,1008.29
2017-09-17T01:35:28.240Z,1008.35
2017-09-17T01:36:28.234Z,1008.31
2017-09-17T01:37:28.230Z,1008.34
2017-09-17T01:38:28.226Z,1008.25
2017-09-17T01:39:28.221Z,1008.36
2017-09-17T01:40:28.219Z,1008.25
2017-09-17T01:41:28.219Z,1008.24
2017-09-17T01:42:28.208Z,1008.36
2017-09-17T01:43:28.202Z,1008.30
2017-09-17T01:44:28.197Z,1008.25
2017-09-17T01:45:28.193Z,1008.26
2017-09-17T01:46:28.188Z,1008.26
2017-09-17T01:47:28.182Z,1008.27
2017-09-17T01:48:28.178Z,1008.32
2017-09-17T01:49:28.173Z,1008.34
2017-09-17T01:50:28.169Z,1008.30
2017-09-17T01:51:28.164Z,1008.28
2017-09-17T01:52:28.158Z,1008.32
2017-09-17T01:53:28.154Z,1008.28
2017-09-17T01:54:28.149Z,1008.35
2017-09-17T01:55:28.144Z,1008.26
2017-09-17T01:56:28.140Z,1008.31
2017-09-17T01:57:28.136Z,1008.33
2017-09-17T01:58:28.130Z,1008.35
2017-09-17T01:59:28.125Z,1008.32
2017-09-17T02:00:28.121Z,1008.26
2017-09-17T02:01:28.115Z,1008.30
2017-09-17T02:02:28.111Z,1008.32
2017-09-17T02:03:28.106Z,1008.29
2017-09-17T02:04:28.104Z,1008.31
2017-09-17T02:05:28.099Z,1008.31
2017-09-17T02:06:28.091Z,1008.31
2017-09-17T02:07:28.086Z,1008.32
2017-09-17T02:08:28.082Z,1008.33
2017-09-17T02:09:28.077Z,1008.33
2017-09-17T02:10:28.072Z,1008.31
2017-09-17T02:11:28.067Z,1008.33
2017-09-17T02:12:28.062Z,1008.33
2017-09-17T02:13:28.056Z,1008.36
2017-09-17T02:14:28.053Z,1008.32
2017-09-17T02:15:28.046Z,1008.35
2017-09-17T02:16:28.043Z,1008.30
2017-09-17T02:17:28.038Z,1008.28
2017-09-17T02:18:28.035Z,1008.30
2017-09-17T02:19:28.026Z,1008.32
2017-09-17T02:20:28.022Z,1008.35
2017-09-17T02:21:28.018Z,1008.37
2017-09-17T02:22:28.012Z,1008.33
2017-09-17T02:23:28.007Z,1008.38
2017-09-17T02:24:28.003Z,1008.39
2017-09-17T02:25:27.996Z,1008.37
2017-09-17T02:26:27.993Z,1008.32
2017-09-17T02:27:27.987Z,1008.38
2017-09-17T02:28:27.983Z,1008.39
2017-09-17T02:29:27.979Z,1008.35
2017-09-17T02:30:27.973Z,1008.38
2017-09-17T02:31:27.967Z,1008.39
2017-09-17T02:32:27.963Z,1008.38
2017-09-17T02:33:27.958Z,1008.38
2017-09-17T02:34:27.954Z,1008.35
2017-09-17T02:35:27.948Z,1008.29
2017-09-17T02:36:27.944Z,1008.23
2017-09-17T02:37:27.938Z,1008.26
2017-09-17T02:38:27.934Z,1008.27
2017-09-17T02:39:27.928Z,1008.27
2017-09-17T02:40:27.922Z,1008.24
2017-09-17T02:41:27.919Z,1008.22
2017-09-17T02:42:27.914Z,1008.25
2017-09-17T02:43:27.908Z,1008.28
2017-09-17T02:44:27.903Z,1008.28
2017-09-17T02:45:27.897Z,1008.27
2017-09-17T02:46:27.893Z,1008.27
2017-09-17T02:47:27.887Z,1008.28
2017-09-17T02:48:27.883Z,1008.23
2017-09-17T02:49:27.877Z,1008.24
2017-09-17T02:50:27.873Z,1008.23
2017-09-17T02:51:27.867Z,1008.23
2017-09-17T02:52:27.862Z,1008.24
2017-09-17T02:53:27.858Z,1008.19
2017-09-17T02:54:27.854Z,1008.20
2017-09-17T02:55:27.847Z,1008.22
2017-09-17T02:56:27.843Z,1008.22
2017-09-17T02:57:27.838Z,1008.27
2017-09-17T02:58:27.832Z,1008.26
2017-09-17T02:59:27.827Z,1008.26
2017-09-17T03:00:27.823Z,1008.21
2017-09-17T03:01:27.817Z,1008.20
2017-09-17T03:02:27.813Z,1008.20
2017-09-17T03:03:27.805Z,1008.22
2017-09-17T03:04:27.802Z,1008.23
2017-09-17T03:05:27.796Z,1008.21
2017-09-17T03:06:27.791Z,1008.24
2017-09-17T03:07:27.786Z,1008.18
2017-09-17T03:08:27.782Z,1008.20
2017-09-17T03:09:27.778Z,1008.18
2017-09-17T03:10:27.772Z,1008.21
2017-09-17T03:11:27.765Z,1008.22
2017-09-17T03:12:27.764Z,1008.25
2017-09-17T03:13:27.756Z,1008.25
2017-09-17T03:14:27.751Z,1008.22
2017-09-17T03:15:27.746Z,1008.26
2017-09-17T03:16:27.740Z,1008.23
2017-09-17T03:17:27.734Z,1008.31
2017-09-17T03:18:27.730Z,1008.34
2017-09-17T03:19:27.725Z,1008.26
2017-09-17T03:20:27.719Z,1008.31
2017-09-17T03:21:27.715Z,1008.29
2017-09-17T03:22:27.709Z,1008.26
2017-09-17T03:23:27.704Z,1008.27
2017-09-17T03:24:27.699Z,1008.21
2017-09-17T03:25:27.693Z,1008.23
2017-09-17T03:26:27.689Z,1008.30
2017-09-17T03:27:27.683Z,1008.29
2017-09-17T03:28:27.678Z,1008.32
2017-09-17T03:29:27.673Z,1008.25
2017-09-17T03:30:27.703Z,1008.36
2017-09-17T03:31:27.661Z,1008.35
2017-09-17T03:32:27.663Z,1008.34
2017-09-17T03:33:27.652Z,1008.34
2017-09-17T03:34:27.648Z,1008.34
2017-09-17T03:35:27.641Z,1008.35
2017-09-17T03:36:27.636Z,1008.34
2017-09-17T03:37:27.632Z,1008.35
2017-09-17T03:38:27.627Z,1008.38
2017-09-17T03:39:27.625Z,1008.34
2017-09-17T03:40:27.616Z,1008.28
2017-09-17T03:41:27.614Z,1008.33
2017-09-17T03:42:27.605Z,1008.38
2017-09-17T03:43:27.600Z,1008.32
2017-09-17T03:44:27.595Z,1008.34
2017-09-17T03:45:27.591Z,1008.35
2017-09-17T03:46:27.584Z,1008.42
2017-09-17T03:47:27.579Z,1008.34
2017-09-17T03:48:27.575Z,1008.36
2017-09-17T03:49:27.571Z,1008.27
2017-09-17T03:50:27.565Z,1008.29
2017-09-17T03:51:27.558Z,1008.27
2017-09-17T03:52:27.555Z,1008.31
2017-09-17T03:53:27.553Z,1008.29
2017-09-17T03:54:27.543Z,1008.30
2017-09-17T03:55:27.537Z,1008.32
2017-09-17T03:56:27.532Z,1008.33
2017-09-17T03:57:27.527Z,1008.29
2017-09-17T03:58:27.523Z,1008.30
2017-09-17T03:59:27.524Z,1008.31
2017-09-17T04:00:27.511Z,1008.35
2017-09-17T04:01:27.506Z,1008.32
2017-09-17T04:02:27.501Z,1008.34
2017-09-17T04:03:27.497Z,1008.33
2017-09-17T04:04:27.494Z,1008.38
2017-09-17T04:05:27.486Z,1008.36
2017-09-17T04:06:27.483Z,1008.33
2017-09-17T04:07:27.476Z,1008.34
2017-09-17T04:08:27.471Z,1008.31
2017-09-17T04:09:27.466Z,1008.34
2017-09-17T04:10:27.459Z,1008.36
2017-09-17T04:11:27.483Z,1008.32
2017-09-17T04:12:27.450Z,1008.35
2017-09-17T04:13:27.445Z,1008.32
2017-09-17T04:14:27.440Z,1008.33
2017-09-17T04:15:27.434Z,1008.35
2017-09-17T04:16:27.430Z,1008.35
2017-09-17T04:17:27.423Z,1008.33
2017-09-17T04:18:27.421Z,1008.34
2017-09-17T04:19:27.413Z,1008.42
2017-09-17T04:20:27.409Z,1008.35
2017-09-17T04:21:27.402Z,1008.33
2017-09-17T04:22:27.398Z,1008.39
2017-09-17T04:23:27.392Z,1008.29
2017-09-17T04:24:27.387Z,1008.35
2017-09-17T04:25:27.384Z,1008.37
2017-09-17T04:26:27.377Z,1008.32
2017-09-17T04:27:27.373Z,1008.33
2017-09-17T04:28:27.368Z,1008.36
2017-09-17T04:29:27.362Z,1008.32
2017-09-17T04:30:27.358Z,1008.34
2017-09-17T04:31:27.354Z,1008.33
2017-09-17T04:32:27.348Z,1008.33
2017-09-17T04:33:27.342Z,1008.37
2017-09-17T04:34:27.337Z,1008.38
2017-09-17T04:35:27.330Z,1008.36
2017-09-17T04:36:27.327Z,1008.38
2017-09-17T04:37:27.322Z,1008.40
2017-09-17T04:38:27.318Z,1008.36
2017-09-17T04:39:27.317Z,1008.37
2017-09-17T04:40:27.307Z,1008.43
2017-09-17T04:41:27.302Z,1008.40
2017-09-17T04:42:27.297Z,1008.47
2017-09-17T04:43:27.290Z,1008.44
2017-09-17T04:44:27.288Z,1008.42
2017-09-17T04:45:27.282Z,1008.51
2017-09-17T04:46:27.276Z,1008.52
2017-09-17T04:47:27.277Z,1008.49
2017-09-17T04:48:27.266Z,1008.52
2017-09-17T04:49:27.262Z,1008.46
2017-09-17T04:50:27.256Z,1008.55
2017-09-17T04:51:27.251Z,1008.57
2017-09-17T04:52:27.245Z,1008.55
2017-09-17T04:53:27.243Z,1008.53
2017-09-17T04:54:27.237Z,1008.54
2017-09-17T04:55:27.229Z,1008.51
2017-09-17T04:56:27.228Z,1008.58
2017-09-17T04:57:27.222Z,1008.60
2017-09-17T04:58:27.217Z,1008.64
2017-09-17T04:59:27.224Z,1008.55
2017-09-17T05:00:27.207Z,1008.59
2017-09-17T05:01:27.202Z,1008.60
2017-09-17T05:02:27.197Z,1008.64
2017-09-17T05:03:27.191Z,1008.65
2017-09-17T05:04:27.186Z,1008.65
2017-09-17T05:05:27.181Z,1008.67
2017-09-17T05:06:27.178Z,1008.65
2017-09-17T05:07:27.172Z,1008.65
2017-09-17T05:08:27.166Z,1008.66
2017-09-17T05:09:27.165Z,1008.64
2017-09-17T05:10:27.156Z,1008.66
2017-09-17T05:11:27.151Z,1008.70
2017-09-17T05:12:27.148Z,1008.66
2017-09-17T05:13:27.143Z,1008.64
2017-09-17T05:14:27.138Z,1008.75
2017-09-17T05:15:27.132Z,1008.72
2017-09-17T05:16:27.129Z,1008.73
2017-09-17T05:17:27.123Z,1008.81
2017-09-17T05:18:27.120Z,1008.73
2017-09-17T05:19:27.114Z,1008.79
2017-09-17T05:20:27.110Z,1008.79
2017-09-17T05:21:27.102Z,1008.82
2017-09-17T05:22:27.097Z,1008.83
2017-09-17T05:23:27.093Z,1008.81
2017-09-17T05:24:27.088Z,1008.87
2017-09-17T05:25:27.083Z,1008.83
2017-09-17T05:26:27.078Z,1008.85
2017-09-17T05:27:27.073Z,1008.81
2017-09-17T05:28:27.068Z,1008.87
2017-09-17T05:29:27.063Z,1008.92
2017-09-17T05:30:27.059Z,1008.91
2017-09-17T05:31:27.053Z,1008.89
2017-09-17T05:32:27.048Z,1008.93
2017-09-17T05:33:27.042Z,1008.90
2017-09-17T05:34:27.039Z,1008.97
2017-09-17T05:35:27.033Z,1008.95
2017-09-17T05:36:27.028Z,1008.94
2017-09-17T05:37:27.025Z,1008.98
2017-09-17T05:38:27.019Z,1008.98
2017-09-17T05:39:27.015Z,1008.92
2017-09-17T05:40:27.009Z,1009.00
2017-09-17T05:41:27.003Z,1008.97
2017-09-17T05:42:26.999Z,1008.98
2017-09-17T05:43:26.994Z,1008.96
2017-09-17T05:44:26.990Z,1008.97
2017-09-17T05:45:26.986Z,1009.00
2017-09-17T05:46:26.980Z,1008.99
2017-09-17T05:47:26.975Z,1008.99
2017-09-17T05:48:26.969Z,1008.98
2017-09-17T05:49:26.964Z,1009.02
2017-09-17T05:50:26.961Z,1009.01
2017-09-17T05:51:26.955Z,1008.98
2017-09-17T05:52:26.951Z,1009.04
2017-09-17T05:53:26.948Z,1009.04
2017-09-17T05:54:26.941Z,1009.03
2017-09-17T05:55:26.937Z,1009.04
2017-09-17T05:56:26.931Z,1009.09
2017-09-17T05:57:26.927Z,1009.09
2017-09-17T05:58:26.923Z,1009.08
2017-09-17T05:59:26.916Z,1009.08
2017-09-17T06:00:26.912Z,1009.04
2017-09-17T06:01:26.909Z,1009.09
2017-09-17T06:02:26.904Z,1009.09
2017-09-17T06:03:26.898Z,1009.14
2017-09-17T06:04:26.892Z,1009.16
2017-09-17T06:05:26.889Z,1009.14
2017-09-17T06:06:26.885Z,1009.16
2017-09-17T06:07:26.878Z,1009.18
2017-09-17T06:08:26.873Z,1009.16
2017-09-17T06:09:26.869Z,1009.14
2017-09-17T06:10:26.866Z,1009.22
2017-09-17T06:11:26.858Z,1009.20
2017-09-17T06:12:26.855Z,1009.23
2017-09-17T06:13:26.850Z,1009.29
2017-09-17T06:14:26.844Z,1009.29
2017-09-17T06:15:26.840Z,1009.21
2017-09-17T06:16:26.835Z,1009.27
2017-09-17T06:17:26.832Z,1009.24
2017-09-17T06:18:26.825Z,1009.22
2017-09-17T06:19:26.820Z,1009.25
2017-09-17T06:20:26.816Z,1009.24
2017-09-17T06:21:26.812Z,1009.24
2017-09-17T06:22:26.808Z,1009.27
2017-09-17T06:23:26.802Z,1009.28
2017-09-17T06:24:26.799Z,1009.27
2017-09-17T06:25:26.797Z,1009.29
2017-09-17T06:26:26.788Z,1009.34
2017-09-17T06:27:26.784Z,1009.31
2017-09-17T06:28:26.778Z,1009.35
2017-09-17T06:29:26.779Z,1009.35
2017-09-17T06:30:26.772Z,1009.36
2017-09-17T06:31:26.766Z,1009.38
2017-09-17T06:32:26.761Z,1009.35
2017-09-17T06:33:26.757Z,1009.40
2017-09-17T06:34:26.754Z,1009.40
2017-09-17T06:35:26.749Z,1009.39
2017-09-17T06:36:26.743Z,1009.40
2017-09-17T06:37:26.740Z,1009.40
2017-09-17T06:38:26.739Z,1009.39
2017-09-17T06:39:26.730Z,1009.41
2017-09-17T06:40:26.727Z,1009.39
2017-09-17T06:41:26.724Z,1009.39
2017-09-17T06:42:26.719Z,1009.46
2017-09-17T06:43:26.715Z,1009.41
2017-09-17T06:44:26.712Z,1009.43
2017-09-17T06:45:26.707Z,1009.50
2017-09-17T06:46:26.704Z,1009.49
2017-09-17T06:47:26.699Z,1009.44
2017-09-17T06:48:26.696Z,1009.46
2017-09-17T06:49:26.691Z,1009.51
2017-09-17T06:50:26.688Z,1009.48
2017-09-17T06:51:26.684Z,1009.49
2017-09-17T06:52:26.686Z,1009.51
2017-09-17T06:53:26.680Z,1009.52
2017-09-17T06:54:26.673Z,1009.54
2017-09-17T06:55:26.668Z,1009.52
2017-09-17T06:56:26.664Z,1009.52
2017-09-17T06:57:26.662Z,1009.53
2017-09-17T06:58:26.659Z,1009.56
2017-09-17T06:59:26.660Z,1009.50
2017-09-17T07:00:26.653Z,1009.58
2017-09-17T07:01:26.648Z,1009.60
2017-09-17T07:02:26.644Z,1009.61
2017-09-17T07:03:26.640Z,1009.65
2017-09-17T07:04:26.637Z,1009.70
2017-09-17T07:05:26.635Z,1009.70
2017-09-17T07:06:26.633Z,1009.72
2017-09-17T07:07:26.628Z,1009.72
2017-09-17T07:08:26.625Z,1009.77
2017-09-17T07:09:26.620Z,1009.70
2017-09-17T07:10:26.618Z,1009.75
2017-09-17T07:11:26.615Z,1009.66
2017-09-17T07:12:26.612Z,1009.76
2017-09-17T07:13:26.609Z,1009.73
2017-09-17T07:14:26.609Z,1009.79
2017-09-17T07:15:26.603Z,1009.88
2017-09-17T07:16:26.601Z,1010.01
2017-09-17T07:17:26.599Z,1009.92
2017-09-17T07:18:26.597Z,1010.12
2017-09-17T07:19:26.594Z,1009.96
2017-09-17T07:20:26.591Z,1010.14
2017-09-17T07:21:26.591Z,1009.95
2017-09-17T07:22:26.590Z,1009.94
2017-09-17T07:23:26.587Z,1009.85
2017-09-17T07:24:26.586Z,1009.81
2017-09-17T07:25:26.584Z,1009.84
2017-09-17T07:26:26.582Z,1009.82
2017-09-17T07:27:26.581Z,1009.81
2017-09-17T07:28:26.581Z,1009.78
2017-09-17T07:29:26.579Z,1009.79
2017-09-17T07:30:26.579Z,1009.77
2017-09-17T07:31:26.577Z,1009.75
2017-09-17T07:32:26.576Z,1009.82
2017-09-17T07:33:26.574Z,1009.75
2017-09-17T07:34:26.575Z,1009.80
2017-09-17T07:35:26.572Z,1009.75
2017-09-17T07:36:26.572Z,1009.77
2017-09-17T07:37:26.570Z,1009.82
2017-09-17T07:38:26.571Z,1009.76
2017-09-17T07:39:26.568Z,1009.77
2017-09-17T07:40:26.566Z,1009.82
2017-09-17T07:41:26.566Z,1009.77
2017-09-17T07:42:26.564Z,1009.82
2017-09-17T07:43:26.561Z,1009.86
2017-09-17T07:44:26.559Z,1009.81
2017-09-17T07:45:26.559Z,1009.86
2017-09-17T07:46:26.562Z,1009.85
2017-09-17T07:47:26.556Z,1009.83
2017-09-17T07:48:26.553Z,1009.85
2017-09-17T07:49:26.553Z,1009.86
2017-09-17T07:50:26.552Z,1009.86
2017-09-17T07:51:26.549Z,1009.84
2017-09-17T07:52:26.555Z,1009.89
2017-09-17T07:53:26.545Z,1009.91
2017-09-17T07:54:26.544Z,1009.96
2017-09-17T07:55:26.542Z,1009.97
2017-09-17T07:56:26.542Z,1009.90
2017-09-17T07:57:26.538Z,1009.96
2017-09-17T07:58:26.538Z,1009.94
2017-09-17T07:59:26.535Z,1010.02
2017-09-17T08:00:26.534Z,1010.02
2017-09-17T08:01:26.531Z,1009.98
2017-09-17T08:02:26.530Z,1010.03
2017-09-17T08:03:26.529Z,1010.05
2017-09-17T08:04:26.528Z,1010.04
2017-09-17T08:05:26.527Z,1010.07
2017-09-17T08:06:26.529Z,1010.08
2017-09-17T08:07:26.523Z,1010.08
2017-09-17T08:08:26.521Z,1010.08
2017-09-17T08:09:26.520Z,1010.10
2017-09-17T08:10:26.519Z,1010.09
2017-09-17T08:11:26.520Z,1010.09
2017-09-17T08:12:26.520Z,1010.08
2017-09-17T08:13:26.520Z,1010.14
2017-09-17T08:14:26.514Z,1010.09
2017-09-17T08:15:26.522Z,1010.09
2017-09-17T08:16:26.510Z,1010.11
2017-09-17T08:17:26.513Z,1010.12
2017-09-17T08:18:26.517Z,1010.03
2017-09-17T08:19:26.514Z,1010.07
2017-09-17T08:20:26.508Z,1010.04
2017-09-17T08:21:26.507Z,1010.11
2017-09-17T08:22:26.518Z,1010.09
2017-09-17T08:23:26.505Z,1010.13
2017-09-17T08:24:26.513Z,1010.08
2017-09-17T08:25:26.504Z,1010.12
2017-09-17T08:26:26.505Z,1010.13
2017-09-17T08:27:26.503Z,1010.16
2017-09-17T08:28:26.536Z,1010.13
2017-09-17T08:29:26.732Z,1010.16
2017-09-17T08:30:26.626Z,1010.09
2017-09-17T08:31:26.546Z,1010.09
2017-09-17T08:32:26.613Z,1010.09
2017-09-17T08:33:26.506Z,1010.04
2017-09-17T08:34:26.538Z,1010.07
2017-09-17T08:35:26.497Z,1010.05
2017-09-17T08:36:26.497Z,1010.09
2017-09-17T08:37:26.498Z,1010.08
2017-09-17T08:38:26.503Z,1010.03
2017-09-17T08:39:26.495Z,1010.03
2017-09-17T08:40:26.495Z,1010.03
2017-09-17T08:41:26.494Z,1010.00
2017-09-17T08:42:26.493Z,1010.01
2017-09-17T08:43:26.494Z,1010.02
2017-09-17T08:44:26.493Z,1009.95
2017-09-17T08:45:26.493Z,1009.93
2017-09-17T08:46:26.491Z,1009.88
2017-09-17T08:47:26.491Z,1009.92
2017-09-17T08:48:26.492Z,1009.89
2017-09-17T08:49:26.491Z,1009.91
2017-09-17T08:50:26.490Z,1009.86
2017-09-17T08:51:26.489Z,1009.92
2017-09-17T08:52:26.488Z,1009.88
2017-09-17T08:53:26.489Z,1009.90
2017-09-17T08:54:26.488Z,1009.86
2017-09-17T08:55:26.486Z,1009.93
2017-09-17T08:56:26.487Z,1009.95
2017-09-17T08:57:26.489Z,1009.93
2017-09-17T08:58:26.485Z,1009.91
2017-09-17T08:59:26.483Z,1009.86
2017-09-17T09:00:26.499Z,1009.92
2017-09-17T09:01:26.481Z,1009.91
2017-09-17T09:02:26.482Z,1009.95
2017-09-17T09:03:26.478Z,1009.92
2017-09-17T09:04:26.478Z,1009.96
2017-09-17T09:05:26.478Z,1009.94
2017-09-17T09:06:26.477Z,1009.94
2017-09-17T09:07:26.475Z,1009.92
2017-09-17T09:08:26.474Z,1009.96
2017-09-17T09:09:26.479Z,1009.95
2017-09-17T09:10:26.473Z,1009.92
2017-09-17T09:11:26.471Z,1009.91
2017-09-17T09:12:26.469Z,1009.95
2017-09-17T09:13:26.469Z,1009.97
2017-09-17T09:14:26.507Z,1009.94
2017-09-17T09:15:26.466Z,1009.94
2017-09-17T09:16:26.503Z,1009.96
2017-09-17T09:17:26.464Z,1009.91
2017-09-17T09:18:26.462Z,1009.92
2017-09-17T09:19:26.460Z,1009.91
2017-09-17T09:20:26.459Z,1009.91
2017-09-17T09:21:26.459Z,1009.94
2017-09-17T09:22:26.455Z,1009.98
2017-09-17T09:23:26.455Z,1009.91
2017-09-17T09:24:26.452Z,1009.90
2017-09-17T09:25:26.452Z,1009.90
2017-09-17T09:26:26.451Z,1009.91
2017-09-17T09:27:26.450Z,1009.90
2017-09-17T09:28:26.447Z,1009.91
2017-09-17T09:29:26.447Z,1009.93
2017-09-17T09:30:26.445Z,1009.93
2017-09-17T09:31:26.444Z,1009.92
2017-09-17T09:32:26.443Z,1009.92
2017-09-17T09:33:26.442Z,1009.95
2017-09-17T09:34:26.446Z,1009.93
2017-09-17T09:35:26.437Z,1009.94
2017-09-17T09:36:26.437Z,1009.93
2017-09-17T09:37:26.440Z,1009.95
2017-09-17T09:38:26.434Z,1009.89
2017-09-17T09:39:26.434Z,1009.92
2017-09-17T09:40:26.434Z,1009.95
2017-09-17T09:41:26.432Z,1009.94
2017-09-17T09:42:26.431Z,1009.93
2017-09-17T09:43:26.430Z,1009.97
2017-09-17T09:44:26.429Z,1009.93
2017-09-17T09:45:26.427Z,1009.99
2017-09-17T09:46:26.426Z,1009.93
2017-09-17T09:47:26.427Z,1009.93
2017-09-17T09:48:26.424Z,1009.96
2017-09-17T09:49:26.426Z,1009.94
2017-09-17T09:50:26.423Z,1009.89
2017-09-17T09:51:26.421Z,1009.87
2017-09-17T09:52:26.421Z,1009.91
2017-09-17T09:53:26.421Z,1009.89
2017-09-17T09:54:26.420Z,1009.91
2017-09-17T09:55:26.418Z,1009.89
2017-09-17T09:56:26.418Z,1009.90
2017-09-17T09:57:26.418Z,1009.91
2017-09-17T09:58:26.425Z,1009.88
2017-09-17T09:59:26.416Z,1009.94
2017-09-17T10:00:26.416Z,1009.96
2017-09-17T10:01:26.416Z,1009.86
2017-09-17T10:02:26.416Z,1009.88
2017-09-17T10:03:26.414Z,1009.89
2017-09-17T10:04:26.414Z,1009.85
2017-09-17T10:05:26.413Z,1009.74
2017-09-17T10:06:26.414Z,1009.80
2017-09-17T10:07:26.412Z,1009.76
2017-09-17T10:08:26.414Z,1009.76
2017-09-17T10:09:26.416Z,1009.81
2017-09-17T10:10:26.414Z,1009.86
2017-09-17T10:11:26.414Z,1009.87
2017-09-17T10:12:26.416Z,1009.87
2017-09-17T10:13:26.414Z,1009.91
2017-09-17T10:14:26.416Z,1009.96
2017-09-17T10:15:26.416Z,1009.94
2017-09-17T10:16:26.419Z,1009.88
2017-09-17T10:17:26.420Z,1009.87
2017-09-17T10:18:26.422Z,1009.88
2017-09-17T10:19:26.423Z,1009.90
2017-09-17T10:20:26.427Z,1009.90
2017-09-17T10:21:26.426Z,1009.90
2017-09-17T10:22:26.429Z,1009.91
2017-09-17T10:23:26.430Z,1009.94
2017-09-17T10:24:26.432Z,1009.95
2017-09-17T10:25:26.435Z,1009.93
2017-09-17T10:26:26.438Z,1009.87
2017-09-17T10:27:26.440Z,1009.88
2017-09-17T10:28:26.444Z,1009.89
2017-09-17T10:29:26.447Z,1009.90
2017-09-17T10:30:26.448Z,1009.89
2017-09-17T10:31:26.450Z,1009.85
2017-09-17T10:32:26.452Z,1009.88
2017-09-17T10:33:26.459Z,1009.88
2017-09-17T10:34:26.460Z,1009.86
2017-09-17T10:35:26.462Z,1009.84
2017-09-17T10:36:26.465Z,1009.82
2017-09-17T10:37:26.468Z,1009.85
2017-09-17T10:38:26.473Z,1009.84
2017-09-17T10:39:26.474Z,1009.84
2017-09-17T10:40:26.478Z,1009.83
2017-09-17T10:41:26.481Z,1009.84
2017-09-17T10:42:26.486Z,1009.89
2017-09-17T10:43:26.488Z,1009.90
2017-09-17T10:44:26.500Z,1009.83
2017-09-17T10:45:26.494Z,1009.86
2017-09-17T10:46:26.499Z,1010.04
2017-09-17T10:47:26.501Z,1010.06
2017-09-17T10:48:26.506Z,1010.13
2017-09-17T10:49:26.511Z,1009.91
2017-09-17T10:50:26.515Z,1009.91
2017-09-17T10:51:26.519Z,1009.89
2017-09-17T10:52:26.525Z,1010.03
2017-09-17T10:53:26.530Z,1010.05
2017-09-17T10:54:26.535Z,1010.05
2017-09-17T10:55:26.540Z,1010.05
2017-09-17T10:56:26.548Z,1010.04
2017-09-17T10:57:26.554Z,1009.98
2017-09-17T10:58:26.561Z,1010.01
2017-09-17T10:59:26.568Z,1009.96
2017-09-17T11:00:26.575Z,1009.97
2017-09-17T11:01:26.583Z,1009.90
2017-09-17T11:02:26.592Z,1009.86
2017-09-17T11:03:26.598Z,1009.80
2017-09-17T11:04:26.608Z,1009.76
2017-09-17T11:05:26.617Z,1009.79
2017-09-17T11:06:26.625Z,1009.85
2017-09-17T11:07:26.634Z,1009.86
2017-09-17T11:08:26.643Z,1009.83
2017-09-17T11:09:26.652Z,1009.79
2017-09-17T11:10:26.661Z,1009.75
2017-09-17T11:11:26.669Z,1009.86
2017-09-17T11:12:26.680Z,1009.82
2017-09-17T11:13:26.685Z,1009.82
2017-09-17T11:14:26.695Z,1009.76
2017-09-17T11:15:26.705Z,1009.80
2017-09-17T11:16:26.712Z,1009.77
2017-09-17T11:17:26.722Z,1009.65
2017-09-17T11:18:26.754Z,1009.65
2017-09-17T11:19:26.738Z,1009.65
2017-09-17T11:20:26.749Z,1009.64
2017-09-17T11:21:26.758Z,1009.59
2017-09-17T11:22:26.771Z,1009.58
2017-09-17T11:23:26.795Z,1009.57
2017-09-17T11:24:26.782Z,1009.51
2017-09-17T11:25:26.791Z,1009.47
2017-09-17T11:26:26.799Z,1009.46
2017-09-17T11:27:26.806Z,1009.47
2017-09-17T11:28:26.813Z,1009.46
2017-09-17T11:29:26.821Z,1009.43
2017-09-17T11:30:26.829Z,1009.42
2017-09-17T11:31:26.834Z,1009.39
2017-09-17T11:32:26.839Z,1009.44
2017-09-17T11:33:26.853Z,1009.39
2017-09-17T11:34:26.855Z,1009.37
2017-09-17T11:35:26.860Z,1009.33
2017-09-17T11:36:26.867Z,1009.41
2017-09-17T11:37:26.871Z,1009.37
2017-09-17T11:38:26.877Z,1009.34
2017-09-17T11:39:26.883Z,1009.34
2017-09-17T11:40:26.887Z,1009.32
2017-09-17T11:41:26.893Z,1009.32
2017-09-17T11:42:26.898Z,1009.32
2017-09-17T11:43:26.902Z,1009.22
2017-09-17T11:44:26.908Z,1009.29
2017-09-17T11:45:26.912Z,1009.32
2017-09-17T11:46:26.918Z,1009.32
2017-09-17T11:47:26.922Z,1009.34
2017-09-17T11:48:26.927Z,1009.31
2017-09-17T11:49:26.930Z,1009.30
2017-09-17T11:50:26.934Z,1009.34
2017-09-17T11:51:26.939Z,1009.32
2017-09-17T11:52:26.946Z,1009.29
2017-09-17T11:53:26.948Z,1009.29
2017-09-17T11:54:26.951Z,1009.23
2017-09-17T11:55:26.957Z,1009.25
2017-09-17T11:56:26.959Z,1009.24
2017-09-17T11:57:26.962Z,1009.28
2017-09-17T11:58:26.971Z,1009.25
2017-09-17T11:59:26.971Z,1009.22
2017-09-17T12:00:26.975Z,1009.23
2017-09-17T12:01:26.980Z,1009.20
2017-09-17T12:02:26.991Z,1009.19
2017-09-17T12:03:26.987Z,1009.15
2017-09-17T12:04:26.992Z,1009.12
2017-09-17T12:05:26.994Z,1009.10